createdAt,value
2022-11-20T00:02:52.027Z,15.90
2022-11-20T00:05:20.894Z,15.70
2022-11-20T00:07:50.376Z,15.10
2022-11-20T00:10:24.117Z,13.50
2022-11-20T00:12:53.494Z,16.37
2022-11-20T00:15:23.187Z,12.70
2022-11-20T00:17:52.434Z,16.50
2022-11-20T00:20:20.321Z,13.60
2022-11-20T00:22:48.235Z,14.70
2022-11-20T00:25:15.884Z,15.20
2022-11-20T00:27:43.568Z,14.53
2022-11-20T00:30:14.864Z,15.17
2022-11-20T00:32:44.116Z,16.10
2022-11-20T00:35:15.070Z,14.60
2022-11-20T00:37:42.825Z,14.37
2022-11-20T00:40:14.203Z,14.77
2022-11-20T00:42:45.212Z,15.80
2022-11-20T00:45:13.898Z,12.23
2022-11-20T00:47:44.248Z,14.67
2022-11-20T00:50:12.203Z,14.17
2022-11-20T00:52:43.370Z,14.30
2022-11-20T00:55:10.966Z,13.83
2022-11-20T00:57:38.672Z,12.20
2022-11-20T01:00:07.885Z,14.70
2022-11-20T01:02:35.788Z,15.30
2022-11-20T01:05:04.792Z,24.33
2022-11-20T01:07:34.188Z,14.10
2022-11-20T01:10:03.280Z,11.97
2022-11-20T01:12:30.942Z,15.30
2022-11-20T01:14:58.558Z,13.83
2022-11-20T01:17:26.268Z,16.63
2022-11-20T01:19:53.865Z,16.00
2022-11-20T01:22:24.303Z,17.33
2022-11-20T01:24:52.183Z,15.93
2022-11-20T01:27:21.173Z,14.90
2022-11-20T01:29:50.800Z,12.70
2022-11-20T01:32:18.724Z,15.30
2022-11-20T01:34:50.377Z,17.90
2022-11-20T01:37:23.177Z,18.33
2022-11-20T01:39:50.878Z,17.73
2022-11-20T01:42:38.250Z,16.77
2022-11-20T01:45:39.278Z,15.13
2022-11-20T01:48:14.254Z,13.60
2022-11-20T01:50:44.923Z,15.10
2022-11-20T01:53:20.423Z,15.90
2022-11-20T01:55:52.044Z,18.23
2022-11-20T01:58:27.399Z,13.53
2022-11-20T02:00:56.975Z,12.73
2022-11-20T02:03:26.871Z,13.30
2022-11-20T02:06:01.420Z,17.63
2022-11-20T02:08:30.802Z,16.00
2022-11-20T02:10:58.681Z,14.77
2022-11-20T02:13:44.297Z,17.60
2022-11-20T02:16:23.167Z,18.57
2022-11-20T02:18:58.147Z,16.10
2022-11-20T02:21:32.775Z,17.87
2022-11-20T02:24:06.689Z,18.70
2022-11-20T02:26:40.368Z,17.43
2022-11-20T02:29:08.137Z,17.67
2022-11-20T02:31:39.070Z,18.87
2022-11-20T02:34:08.487Z,17.97
2022-11-20T02:36:38.100Z,20.10
2022-11-20T02:39:08.017Z,19.83
2022-11-20T02:41:37.202Z,14.93
2022-11-20T02:44:07.292Z,15.03
2022-11-20T02:46:35.877Z,17.50
2022-11-20T02:49:04.763Z,15.00
2022-11-20T02:51:33.300Z,18.17
2022-11-20T02:54:01.271Z,15.40
2022-11-20T02:56:30.487Z,14.53
2022-11-20T02:58:58.191Z,18.20
2022-11-20T03:01:26.184Z,12.50
2022-11-20T03:03:55.425Z,14.57
2022-11-20T03:06:23.636Z,17.43
2022-11-20T03:08:51.353Z,17.33
2022-11-20T03:11:19.927Z,16.03
2022-11-20T03:13:50.002Z,16.07
2022-11-20T03:16:19.853Z,17.50
2022-11-20T03:18:47.825Z,16.00
2022-11-20T03:21:16.134Z,14.40
2022-11-20T03:23:44.131Z,17.43
2022-11-20T03:26:16.715Z,14.53
2022-11-20T03:28:50.493Z,16.30
2022-11-20T03:31:23.110Z,16.63
2022-11-20T03:33:51.156Z,20.37
2022-11-20T03:36:23.198Z,20.33
2022-11-20T03:38:51.391Z,15.90
2022-11-20T03:41:21.236Z,20.40
2022-11-20T03:43:50.222Z,15.60
2022-11-20T03:46:18.165Z,16.17
2022-11-20T03:48:51.350Z,18.40
2022-11-20T03:51:24.043Z,16.13
2022-11-20T03:53:53.269Z,20.30
2022-11-20T03:56:27.713Z,15.63
2022-11-20T03:58:55.835Z,18.70
2022-11-20T04:01:24.894Z,17.70
2022-11-20T04:03:56.809Z,16.47
2022-11-20T04:06:26.110Z,17.70
2022-11-20T04:08:56.206Z,18.90
2022-11-20T04:11:27.719Z,22.20
2022-11-20T04:13:56.708Z,18.07
2022-11-20T04:16:33.406Z,16.50
2022-11-20T04:19:05.061Z,17.33
2022-11-20T04:21:32.883Z,19.13
2022-11-20T04:24:00.949Z,15.80
2022-11-20T04:26:30.323Z,17.83
2022-11-20T04:28:58.951Z,16.57
2022-11-20T04:31:28.746Z,16.27
2022-11-20T04:33:56.837Z,17.90
2022-11-20T04:36:27.879Z,17.13
2022-11-20T04:38:57.480Z,18.20
2022-11-20T04:41:26.736Z,18.87
2022-11-20T04:44:00.000Z,17.90
2022-11-20T04:46:29.515Z,15.03
2022-11-20T04:48:57.947Z,16.93
2022-11-20T04:51:27.121Z,18.73
2022-11-20T04:53:55.526Z,17.60
2022-11-20T04:56:23.444Z,17.03
2022-11-20T04:58:51.768Z,15.43
2022-11-20T05:01:21.342Z,20.70
2022-11-20T05:03:49.241Z,16.70
2022-11-20T05:06:19.290Z,16.50
2022-11-20T05:08:48.293Z,18.13
2022-11-20T05:11:18.517Z,17.20
2022-11-20T05:13:46.457Z,25.20
2022-11-20T05:16:17.071Z,15.73
2022-11-20T05:18:45.324Z,21.13
2022-11-20T05:21:14.165Z,16.40
2022-11-20T05:23:42.560Z,15.00
2022-11-20T05:26:15.702Z,19.50
2022-11-20T05:28:44.200Z,18.53
2022-11-20T05:31:14.066Z,16.83
2022-11-20T05:33:42.543Z,21.30
2022-11-20T05:36:11.721Z,21.17
2022-11-20T05:38:40.407Z,21.13
2022-11-20T05:41:10.178Z,19.17
2022-11-20T05:43:41.199Z,16.67
2022-11-20T05:46:11.022Z,27.50
2022-11-20T05:48:40.061Z,20.57
2022-11-20T05:51:09.798Z,19.63
2022-11-20T05:53:48.576Z,19.23
2022-11-20T05:56:19.762Z,30.60
2022-11-20T05:58:49.814Z,24.27
2022-11-20T06:01:19.327Z,19.43
2022-11-20T06:03:48.910Z,21.37
2022-11-20T06:06:17.450Z,21.53
2022-11-20T06:08:45.916Z,22.17
2022-11-20T06:11:15.088Z,18.10
2022-11-20T06:13:43.135Z,21.30
2022-11-20T06:16:13.498Z,27.40
2022-11-20T06:18:41.316Z,23.40
2022-11-20T06:21:10.738Z,19.97
2022-11-20T06:23:38.802Z,18.20
2022-11-20T06:26:08.693Z,21.20
2022-11-20T06:28:36.868Z,22.70
2022-11-20T06:31:04.953Z,21.97
2022-11-20T06:33:34.531Z,19.00
2022-11-20T06:36:09.108Z,18.07
2022-11-20T06:38:38.540Z,29.80
2022-11-20T06:41:07.234Z,23.10
2022-11-20T06:43:34.885Z,20.60
2022-11-20T06:46:02.518Z,25.43
2022-11-20T06:48:30.866Z,20.60
2022-11-20T06:51:00.150Z,25.00
2022-11-20T06:53:27.754Z,25.50
2022-11-20T06:55:59.466Z,24.43
2022-11-20T06:58:29.220Z,27.50
2022-11-20T07:01:00.677Z,25.97
2022-11-20T07:03:28.722Z,22.80
2022-11-20T07:05:57.347Z,22.93
2022-11-20T07:08:29.228Z,24.33
2022-11-20T07:11:00.477Z,25.83
2022-11-20T07:13:28.499Z,20.63
2022-11-20T07:15:56.537Z,26.60
2022-11-20T07:18:24.172Z,23.80
2022-11-20T07:20:52.244Z,24.33
2022-11-20T07:23:19.839Z,24.00
2022-11-20T07:25:50.204Z,23.10
2022-11-20T07:28:17.818Z,26.57
2022-11-20T07:30:51.971Z,24.50
2022-11-20T07:33:19.580Z,25.27
2022-11-20T07:35:47.208Z,20.27
2022-11-20T07:38:15.080Z,35.43
2022-11-20T07:40:42.708Z,25.20
2022-11-20T07:43:12.180Z,26.40
2022-11-20T07:45:40.108Z,26.50
2022-11-20T07:48:08.793Z,23.83
2022-11-20T07:50:36.574Z,23.70
2022-11-20T07:53:05.576Z,21.30
2022-11-20T07:55:34.046Z,22.43
2022-11-20T07:58:01.951Z,22.27
2022-11-20T08:00:31.207Z,20.70
2022-11-20T08:02:58.920Z,24.47
2022-11-20T08:05:26.574Z,30.97
2022-11-20T08:07:54.286Z,24.17
2022-11-20T08:10:22.088Z,21.30
2022-11-20T08:13:09.355Z,21.10
2022-11-20T08:15:39.825Z,20.43
2022-11-20T08:18:30.077Z,24.63
2022-11-20T08:20:57.046Z,18.63
2022-11-20T08:23:25.110Z,21.90
2022-11-20T08:25:52.925Z,18.87
2022-11-20T08:28:22.340Z,21.00
2022-11-20T08:30:52.966Z,20.60
2022-11-20T08:33:20.610Z,19.60
2022-11-20T08:35:49.039Z,23.47
2022-11-20T08:38:16.917Z,23.77
2022-11-20T08:41:06.115Z,28.63
2022-11-20T08:43:33.874Z,27.67
2022-11-20T08:46:02.847Z,26.30
2022-11-20T08:48:30.428Z,23.90
2022-11-20T08:51:00.201Z,23.90
2022-11-20T08:53:27.780Z,28.20
2022-11-20T08:55:55.544Z,24.90
2022-11-20T08:58:23.079Z,25.80
2022-11-20T09:00:50.726Z,23.20
2022-11-20T09:03:21.769Z,25.07
2022-11-20T09:05:49.439Z,38.53
2022-11-20T09:08:17.126Z,26.27
2022-11-20T09:10:44.749Z,28.47
2022-11-20T09:13:13.023Z,26.70
2022-11-20T09:15:40.571Z,21.87
2022-11-20T09:18:08.120Z,27.30
2022-11-20T09:20:37.931Z,23.37
2022-11-20T09:23:05.671Z,23.97
2022-11-20T09:25:33.310Z,19.33
2022-11-20T09:28:02.432Z,21.70
2022-11-20T09:30:29.985Z,25.43
2022-11-20T09:32:57.570Z,19.27
2022-11-20T09:35:25.322Z,42.50
2022-11-20T09:37:55.875Z,26.30
2022-11-20T09:40:25.546Z,21.00
2022-11-20T09:42:59.310Z,20.37
2022-11-20T09:45:38.968Z,18.97
2022-11-20T09:48:24.124Z,22.37
2022-11-20T09:50:58.015Z,20.73
2022-11-20T09:53:36.061Z,23.93
2022-11-20T09:56:05.675Z,23.03
2022-11-20T09:58:39.208Z,18.27
2022-11-20T10:01:13.138Z,20.10
2022-11-20T10:03:51.594Z,25.60
2022-11-20T10:06:23.545Z,24.10
2022-11-20T10:09:03.168Z,26.43
2022-11-20T10:11:38.192Z,28.77
2022-11-20T10:14:22.697Z,22.17
2022-11-20T10:17:00.452Z,24.40
2022-11-20T10:19:46.049Z,24.30
2022-11-20T10:22:28.063Z,23.00
2022-11-20T10:25:10.194Z,26.20
2022-11-20T10:28:22.213Z,34.20
2022-11-20T10:30:58.711Z,25.13
2022-11-20T10:33:38.771Z,24.03
2022-11-20T10:36:23.416Z,20.97
2022-11-20T10:38:56.669Z,28.23
2022-11-20T10:41:37.084Z,23.27
2022-11-20T10:44:07.608Z,28.57
2022-11-20T10:46:41.000Z,21.83
2022-11-20T10:49:15.528Z,22.33
2022-11-20T10:51:54.189Z,23.43
2022-11-20T10:54:27.465Z,18.67
2022-11-20T10:57:02.624Z,24.90
2022-11-20T10:59:51.436Z,21.67
2022-11-20T11:02:21.645Z,21.20
2022-11-20T11:04:54.017Z,22.40
2022-11-20T11:07:26.050Z,20.20
2022-11-20T11:09:56.841Z,19.50
2022-11-20T11:12:29.377Z,22.40
2022-11-20T11:14:59.652Z,28.37
2022-11-20T11:17:29.521Z,25.20
2022-11-20T11:20:13.624Z,30.80
2022-11-20T11:22:47.211Z,28.23
2022-11-20T11:25:24.518Z,26.87
2022-11-20T11:27:57.710Z,35.07
2022-11-20T11:30:29.429Z,34.67
2022-11-20T11:33:08.268Z,28.97
2022-11-20T11:35:35.984Z,29.10
2022-11-20T11:38:09.324Z,30.57
2022-11-20T11:40:39.484Z,24.70
2022-11-20T11:43:37.864Z,27.60
2022-11-20T11:46:15.579Z,27.20
2022-11-20T11:48:50.529Z,31.37
2022-11-20T11:51:22.199Z,27.37
2022-11-20T11:53:49.846Z,25.73
2022-11-20T11:56:18.032Z,27.40
2022-11-20T11:58:49.749Z,25.43
2022-11-20T12:01:28.760Z,22.30
2022-11-20T12:04:04.246Z,30.93
2022-11-20T12:06:34.198Z,29.67
2022-11-20T12:09:07.139Z,23.40
2022-11-20T12:11:42.093Z,27.87
2022-11-20T12:14:27.425Z,26.07
2022-11-20T12:16:57.976Z,26.47
2022-11-20T12:19:26.275Z,24.57
2022-11-20T12:22:03.370Z,25.67
2022-11-20T12:24:50.892Z,31.77
2022-11-20T12:28:00.587Z,29.93
2022-11-20T12:30:29.988Z,24.33
2022-11-20T12:33:14.591Z,25.47
2022-11-20T12:36:03.971Z,25.73
2022-11-20T12:39:13.537Z,25.13
2022-11-20T12:42:11.195Z,23.47
2022-11-20T12:45:13.652Z,26.33
2022-11-20T12:48:06.662Z,21.87
2022-11-20T12:51:08.002Z,28.70
2022-11-20T12:53:40.328Z,21.83
2022-11-20T12:56:20.309Z,25.93
2022-11-20T12:58:57.782Z,21.73
2022-11-20T13:01:41.925Z,22.00
2022-11-20T13:04:22.237Z,25.10
2022-11-20T13:06:50.815Z,24.83
2022-11-20T13:09:22.770Z,25.53
2022-11-20T13:11:59.298Z,23.63
2022-11-20T13:14:35.918Z,20.90
2022-11-20T13:17:15.601Z,22.20
2022-11-20T13:19:50.329Z,18.10
2022-11-20T13:22:26.599Z,25.73
2022-11-20T13:24:54.428Z,21.30
2022-11-20T13:27:24.223Z,25.83
2022-11-20T13:30:04.600Z,23.40
2022-11-20T13:32:33.357Z,18.00
2022-11-20T13:35:05.086Z,25.93
2022-11-20T13:37:35.720Z,20.43
2022-11-20T13:40:24.083Z,21.90
2022-11-20T13:43:03.536Z,18.20
2022-11-20T13:45:35.640Z,18.87
2022-11-20T13:48:08.987Z,19.33
2022-11-20T13:50:53.048Z,20.60
2022-11-20T13:53:38.823Z,16.73
2022-11-20T13:56:15.717Z,17.30
2022-11-20T13:58:55.635Z,17.23
2022-11-20T14:01:26.179Z,18.53
2022-11-20T14:04:06.088Z,20.47
2022-11-20T14:06:43.113Z,19.03
2022-11-20T14:09:14.548Z,17.90
2022-11-20T14:11:48.837Z,17.17
2022-11-20T14:14:21.729Z,21.37
2022-11-20T14:16:50.756Z,19.30
2022-11-20T14:19:31.672Z,19.77
2022-11-20T14:22:18.838Z,20.47
2022-11-20T14:24:46.944Z,21.03
2022-11-20T14:27:16.770Z,14.93
2022-11-20T14:29:46.472Z,21.80
2022-11-20T14:32:17.510Z,17.33
2022-11-20T14:34:47.616Z,16.70
2022-11-20T14:37:23.607Z,15.57
2022-11-20T14:39:53.817Z,20.50
2022-11-20T14:42:23.331Z,16.40
2022-11-20T14:44:52.327Z,16.13
2022-11-20T14:47:23.354Z,17.77
2022-11-20T14:49:52.126Z,15.37
2022-11-20T14:52:25.902Z,17.10
2022-11-20T14:54:55.272Z,13.90
2022-11-20T14:57:26.832Z,19.73
2022-11-20T15:00:08.472Z,15.37
2022-11-20T15:02:36.583Z,17.10
2022-11-20T15:05:07.487Z,14.73
2022-11-20T15:07:41.632Z,16.63
2022-11-20T15:10:12.223Z,15.30
2022-11-20T15:12:48.019Z,18.93
2022-11-20T15:15:21.128Z,14.70
2022-11-20T15:17:49.107Z,19.97
2022-11-20T15:20:18.361Z,16.57
2022-11-20T15:22:47.293Z,17.37
2022-11-20T15:25:16.259Z,22.20
2022-11-20T15:27:44.105Z,19.77
2022-11-20T15:30:16.117Z,21.13
2022-11-20T15:32:45.234Z,20.07
2022-11-20T15:35:13.078Z,16.73
2022-11-20T15:37:42.862Z,15.63
2022-11-20T15:40:12.728Z,20.33
2022-11-20T15:43:00.328Z,15.80
2022-11-20T15:45:30.784Z,20.17
2022-11-20T15:48:01.716Z,22.43
2022-11-20T15:50:34.892Z,18.87
2022-11-20T15:53:02.535Z,14.50
2022-11-20T15:55:32.541Z,20.50
2022-11-20T15:58:00.409Z,17.87
2022-11-20T16:00:28.033Z,19.40
2022-11-20T16:02:55.633Z,18.70
2022-11-20T16:05:25.000Z,12.97
2022-11-20T16:07:52.997Z,19.07
2022-11-20T16:10:20.891Z,15.83
2022-11-20T16:13:07.809Z,16.80
2022-11-20T16:15:48.124Z,17.97
2022-11-20T16:18:18.265Z,16.10
2022-11-20T16:20:46.792Z,17.47
2022-11-20T16:23:14.959Z,16.70
2022-11-20T16:25:42.783Z,15.73
2022-11-20T16:28:17.426Z,15.33
2022-11-20T16:30:46.868Z,16.57
2022-11-20T16:33:16.331Z,17.37
2022-11-20T16:35:43.945Z,19.77
2022-11-20T16:38:14.029Z,21.20
2022-11-20T16:40:41.706Z,13.40
2022-11-20T16:43:12.885Z,15.80
2022-11-20T16:45:45.844Z,17.10
2022-11-20T16:48:20.269Z,13.70
2022-11-20T16:50:50.028Z,16.13
2022-11-20T16:53:17.853Z,17.93
2022-11-20T16:55:45.959Z,17.80
2022-11-20T16:58:15.047Z,20.80
2022-11-20T17:00:48.344Z,16.30
2022-11-20T17:03:18.040Z,15.37
2022-11-20T17:05:45.798Z,15.17
2022-11-20T17:08:13.487Z,15.30
2022-11-20T17:10:42.478Z,17.03
2022-11-20T17:13:10.126Z,18.23
2022-11-20T17:15:40.176Z,17.03
2022-11-20T17:18:08.030Z,19.90
2022-11-20T17:20:36.020Z,14.50
2022-11-20T17:23:03.740Z,15.80
2022-11-20T17:25:34.394Z,17.20
2022-11-20T17:28:02.121Z,18.23
2022-11-20T17:30:29.767Z,14.33
2022-11-20T17:32:58.687Z,17.40
2022-11-20T17:35:26.439Z,16.73
2022-11-20T17:37:54.085Z,61.10
2022-11-20T17:40:26.016Z,41.17
2022-11-20T17:42:55.060Z,19.07
2022-11-20T17:45:22.638Z,21.60
2022-11-20T17:47:50.639Z,16.17
2022-11-20T17:50:19.799Z,15.70
2022-11-20T17:52:47.448Z,16.53
2022-11-20T17:55:15.800Z,21.60
2022-11-20T17:57:56.644Z,17.07
2022-11-20T18:00:25.342Z,17.33
2022-11-20T18:02:53.263Z,16.43
2022-11-20T18:05:22.394Z,19.23
2022-11-20T18:07:53.582Z,16.60
2022-11-20T18:10:21.292Z,21.63
2022-11-20T18:12:48.973Z,18.63
2022-11-20T18:15:17.159Z,19.00
2022-11-20T18:17:44.748Z,17.13
2022-11-20T18:20:38.239Z,14.63
2022-11-20T18:23:16.685Z,15.70
2022-11-20T18:25:47.903Z,14.10
2022-11-20T18:28:19.801Z,14.50
2022-11-20T18:30:47.984Z,18.13
2022-11-20T18:33:15.577Z,15.57
2022-11-20T18:35:45.891Z,14.67
2022-11-20T18:38:15.053Z,12.33
2022-11-20T18:40:42.621Z,12.40
2022-11-20T18:43:29.545Z,15.07
2022-11-20T18:46:02.849Z,12.93
2022-11-20T18:48:32.911Z,12.40
2022-11-20T18:51:06.583Z,14.20
2022-11-20T18:53:37.171Z,9.50
2022-11-20T18:56:08.037Z,11.40
2022-11-20T18:58:36.077Z,6.50
2022-11-20T19:01:07.156Z,12.00
2022-11-20T19:03:35.242Z,5.77
2022-11-20T19:06:03.204Z,3.77
2022-11-20T19:08:30.761Z,7.00
2022-11-20T19:11:07.991Z,4.20
2022-11-20T19:13:36.050Z,4.50
2022-11-20T19:16:04.396Z,3.40
2022-11-20T19:18:33.545Z,52.37
2022-11-20T19:21:09.820Z,14.47
2022-11-20T19:23:38.326Z,9.50
2022-11-20T19:26:16.207Z,3.40
2022-11-20T19:28:44.446Z,13.47
2022-11-20T19:31:13.726Z,12.50
2022-11-20T19:33:45.013Z,9.80
2022-11-20T19:36:14.888Z,2.70
2022-11-20T19:38:47.996Z,8.70
2022-11-20T19:41:18.889Z,5.10
2022-11-20T19:43:49.686Z,6.90
2022-11-20T19:46:20.361Z,5.77
2022-11-20T19:48:48.428Z,2.60
2022-11-20T19:51:18.043Z,3.80
2022-11-20T19:53:45.911Z,5.20
2022-11-20T19:56:13.915Z,5.33
2022-11-20T19:58:43.498Z,6.63
2022-11-20T20:01:12.702Z,5.43
2022-11-20T20:03:41.211Z,3.80
2022-11-20T20:06:11.019Z,4.93
2022-11-20T20:08:39.011Z,4.30
2022-11-20T20:11:14.890Z,6.33
2022-11-20T20:13:45.079Z,2.20
2022-11-20T20:16:14.620Z,3.10
2022-11-20T20:18:43.013Z,17.77
2022-11-20T20:21:12.347Z,6.40
2022-11-20T20:23:40.683Z,3.70
2022-11-20T20:26:10.523Z,1.93
2022-11-20T20:28:39.363Z,4.77
2022-11-20T20:31:09.659Z,3.53
2022-11-20T20:33:38.350Z,2.27
2022-11-20T20:36:08.598Z,2.57
2022-11-20T20:38:37.961Z,2.40
2022-11-20T20:41:05.877Z,3.27
2022-11-20T20:43:53.829Z,4.17
2022-11-20T20:46:23.276Z,2.80
2022-11-20T20:48:54.410Z,5.87
2022-11-20T20:51:23.240Z,2.50
2022-11-20T20:53:51.308Z,1.53
2022-11-20T20:56:20.073Z,1.67
2022-11-20T20:58:48.186Z,1.93
2022-11-20T21:01:18.821Z,4.50
2022-11-20T21:03:48.485Z,8.17
2022-11-20T21:06:16.343Z,10.43
2022-11-20T21:08:46.855Z,10.33
2022-11-20T21:11:16.059Z,9.10
2022-11-20T21:13:45.409Z,15.33
2022-11-20T21:16:13.987Z,13.40
2022-11-20T21:18:41.614Z,3.33
2022-11-20T21:21:31.727Z,1.30
2022-11-20T21:24:00.930Z,1.67
2022-11-20T21:26:29.038Z,2.53
2022-11-20T21:28:58.495Z,2.30
2022-11-20T21:31:27.030Z,2.90
2022-11-20T21:33:57.656Z,1.37
2022-11-20T21:36:28.083Z,1.17
2022-11-20T21:38:57.197Z,1.43
2022-11-20T21:41:28.604Z,1.50
2022-11-20T21:44:29.614Z,1.60
2022-11-20T21:46:46.396Z,1.27
2022-11-20T21:49:15.414Z,1.47
2022-11-20T21:51:44.664Z,2.30
2022-11-20T21:54:13.724Z,1.47
2022-11-20T21:56:41.617Z,1.00
2022-11-20T21:59:12.892Z,8.97
2022-11-20T22:01:40.615Z,1.30
2022-11-20T22:04:08.366Z,1.00
2022-11-20T22:06:35.907Z,1.40
2022-11-20T22:09:05.214Z,1.10
2022-11-20T22:11:33.098Z,1.53
2022-11-20T22:14:18.625Z,1.60
2022-11-20T22:16:46.482Z,1.53
2022-11-20T22:19:20.051Z,1.77
2022-11-20T22:21:51.275Z,1.50
2022-11-20T22:24:23.704Z,1.07
2022-11-20T22:26:53.506Z,1.43
2022-11-20T22:29:22.239Z,1.43
2022-11-20T22:31:52.705Z,1.43
2022-11-20T22:34:21.434Z,1.90
2022-11-20T22:36:50.443Z,1.17
2022-11-20T22:39:22.624Z,1.50
2022-11-20T22:41:51.265Z,1.07
2022-11-20T22:44:20.011Z,2.80
2022-11-20T22:46:47.582Z,1.30
2022-11-20T22:49:15.754Z,1.80
2022-11-20T22:51:45.578Z,1.33
2022-11-20T22:54:14.867Z,2.60
2022-11-20T22:56:51.391Z,1.30
2022-11-20T22:59:19.272Z,2.00
2022-11-20T23:01:46.866Z,5.00
2022-11-20T23:04:15.331Z,4.90
2022-11-20T23:06:43.091Z,3.40
2022-11-20T23:09:12.727Z,3.23
2022-11-20T23:11:40.335Z,2.23
2022-11-20T23:14:15.252Z,3.80
2022-11-20T23:16:43.281Z,3.23
2022-11-20T23:19:13.097Z,2.40
2022-11-20T23:21:42.529Z,1.30
2022-11-20T23:24:10.842Z,2.10
2022-11-20T23:26:40.710Z,3.33
2022-11-20T23:29:09.913Z,6.30
2022-11-20T23:31:37.693Z,6.93
2022-11-20T23:34:06.373Z,3.70
2022-11-20T23:36:33.995Z,4.90
2022-11-20T23:39:01.708Z,1.83
2022-11-20T23:41:29.320Z,1.00
2022-11-20T23:43:56.918Z,2.87
2022-11-20T23:46:25.886Z,3.77
2022-11-20T23:48:53.611Z,3.53
2022-11-20T23:51:21.253Z,3.20
2022-11-20T23:53:49.033Z,3.03
2022-11-20T23:56:16.692Z,1.90
2022-11-20T23:58:44.691Z,5.00
